createdAt,value
2023-02-27T00:00:22.859Z,0.22
2023-02-27T00:02:51.677Z,0.24
2023-02-27T00:05:19.599Z,0.26
2023-02-27T00:07:46.584Z,0.28
2023-02-27T00:10:14.408Z,0.31
2023-02-27T00:12:42.430Z,0.32
2023-02-27T00:15:18.394Z,0.34
2023-02-27T00:17:45.738Z,0.31
2023-02-27T00:20:16.801Z,0.29
2023-02-27T00:22:45.058Z,0.23
2023-02-27T00:25:12.772Z,0.18
2023-02-27T00:27:40.094Z,0.16
2023-02-27T00:30:09.754Z,0.17
2023-02-27T00:32:36.995Z,0.19
2023-02-27T00:35:05.847Z,0.20
2023-02-27T00:37:32.804Z,0.19
2023-02-27T00:39:59.744Z,0.19
2023-02-27T00:42:28.439Z,0.20
2023-02-27T00:44:55.296Z,0.21
2023-02-27T00:47:22.337Z,0.20
2023-02-27T00:49:49.185Z,0.17
2023-02-27T00:52:16.247Z,0.15
2023-02-27T00:54:43.095Z,0.14
2023-02-27T00:57:09.971Z,0.10
2023-02-27T00:59:38.136Z,0.06
2023-02-27T01:02:05.164Z,0.05
2023-02-27T01:04:33.244Z,0.07
2023-02-27T01:07:00.402Z,0.09
2023-02-27T01:09:27.460Z,0.14
2023-02-27T01:11:54.414Z,0.18
2023-02-27T01:14:21.767Z,0.13
2023-02-27T01:16:49.638Z,0.08
2023-02-27T01:19:16.791Z,0.08
2023-02-27T01:21:44.566Z,0.10
2023-02-27T01:24:12.852Z,0.12
2023-02-27T01:26:40.818Z,0.14
2023-02-27T01:29:07.869Z,0.16
2023-02-27T01:31:35.167Z,0.18
2023-02-27T01:34:02.592Z,0.20
2023-02-27T01:36:29.541Z,0.23
2023-02-27T01:38:56.487Z,0.25
2023-02-27T01:41:23.441Z,0.25
2023-02-27T01:44:07.070Z,0.25
2023-02-27T01:46:37.614Z,0.23
2023-02-27T01:49:24.315Z,0.21
2023-02-27T01:52:06.195Z,0.17
2023-02-27T01:54:38.163Z,0.18
2023-02-27T01:57:06.875Z,0.19
2023-02-27T01:59:36.074Z,0.20
2023-02-27T02:02:09.411Z,0.22
2023-02-27T02:04:39.575Z,0.23
2023-02-27T02:07:10.209Z,0.23
2023-02-27T02:09:45.760Z,0.22
2023-02-27T02:12:15.363Z,0.20
2023-02-27T02:14:44.006Z,0.21
2023-02-27T02:17:29.322Z,0.23
2023-02-27T02:19:56.172Z,0.24
2023-02-27T02:22:27.214Z,0.25
2023-02-27T02:25:15.753Z,0.27
2023-02-27T02:27:53.349Z,0.25
2023-02-27T02:30:51.491Z,0.23
2023-02-27T02:34:05.332Z,0.22
2023-02-27T02:36:44.456Z,0.20
2023-02-27T02:39:14.986Z,0.22
2023-02-27T02:41:44.903Z,0.23
2023-02-27T02:44:40.408Z,0.21
2023-02-27T02:47:10.656Z,0.20
2023-02-27T02:49:58.222Z,0.19
2023-02-27T02:52:34.211Z,0.17
2023-02-27T02:55:09.257Z,0.16
2023-02-27T02:57:47.355Z,0.16
2023-02-27T03:00:25.420Z,0.19
2023-02-27T03:02:59.576Z,0.23
2023-02-27T03:05:35.115Z,0.25
2023-02-27T03:08:16.299Z,0.28
2023-02-27T03:10:49.920Z,0.30
2023-02-27T03:13:37.824Z,0.29
2023-02-27T03:17:14.302Z,0.27
2023-02-27T03:19:56.818Z,0.29
2023-02-27T03:22:38.617Z,0.32
2023-02-27T03:25:10.660Z,0.35
2023-02-27T03:28:11.288Z,0.36
2023-02-27T03:30:45.177Z,0.38
2023-02-27T03:33:30.294Z,0.40
2023-02-27T03:36:08.048Z,0.43
2023-02-27T03:38:57.754Z,0.48
2023-02-27T03:41:42.885Z,0.50
2023-02-27T03:44:34.042Z,0.47
2023-02-27T03:47:01.049Z,0.39
2023-02-27T03:49:28.468Z,0.31
2023-02-27T03:51:55.407Z,0.26
2023-02-27T03:54:27.997Z,0.23
2023-02-27T03:57:04.480Z,0.19
2023-02-27T03:59:32.844Z,0.14
2023-02-27T04:02:02.096Z,0.13
2023-02-27T04:04:32.179Z,0.11
2023-02-27T04:07:35.977Z,0.08
2023-02-27T04:10:24.529Z,0.06
2023-02-27T04:13:16.546Z,0.04
2023-02-27T04:15:55.324Z,-0.03
2023-02-27T04:18:27.992Z,-0.04
2023-02-27T04:21:06.419Z,0.01
2023-02-27T04:23:51.683Z,0.04
2023-02-27T04:26:30.618Z,0.08
2023-02-27T04:29:15.427Z,0.11
2023-02-27T04:31:47.221Z,0.11
2023-02-27T04:34:28.349Z,0.12
2023-02-27T04:36:59.044Z,0.13
2023-02-27T04:39:33.119Z,0.11
2023-02-27T04:42:13.420Z,0.07
2023-02-27T04:44:42.087Z,0.07
2023-02-27T04:47:11.531Z,0.05
2023-02-27T04:49:46.043Z,0.02
2023-02-27T04:52:24.960Z,0.03
2023-02-27T04:55:00.193Z,0.05
2023-02-27T04:57:43.195Z,0.06
2023-02-27T05:00:14.111Z,0.09
2023-02-27T05:02:47.995Z,0.11
2023-02-27T05:05:22.350Z,0.12
2023-02-27T05:07:57.007Z,0.09
2023-02-27T05:10:36.261Z,0.06
2023-02-27T05:13:22.761Z,0.02
2023-02-27T05:17:44.792Z,0.01
2023-02-27T05:20:13.461Z,-0.00
2023-02-27T05:22:56.681Z,0.03
2023-02-27T05:25:41.491Z,0.06
2023-02-27T05:28:17.038Z,0.09
2023-02-27T05:30:59.591Z,0.13
2023-02-27T05:33:43.945Z,0.14
2023-02-27T05:36:25.112Z,0.15
2023-02-27T05:38:58.566Z,0.15
2023-02-27T05:41:32.053Z,0.12
2023-02-27T05:44:10.729Z,0.07
2023-02-27T05:46:41.871Z,0.07
2023-02-27T05:49:33.995Z,0.10
2023-02-27T05:52:05.200Z,0.12
2023-02-27T05:54:35.162Z,0.15
2023-02-27T05:57:05.768Z,0.18
2023-02-27T05:59:47.380Z,0.20
2023-02-27T06:02:14.571Z,0.20
2023-02-27T06:04:41.907Z,0.16
2023-02-27T06:07:09.463Z,0.12
2023-02-27T06:09:36.628Z,0.08
2023-02-27T06:12:03.570Z,0.05
2023-02-27T06:14:30.523Z,0.02
2023-02-27T06:16:57.474Z,-0.03
2023-02-27T06:19:24.843Z,-0.07
2023-02-27T06:21:51.792Z,-0.11
2023-02-27T06:24:19.382Z,-0.14
2023-02-27T06:26:47.529Z,-0.18
2023-02-27T06:29:14.785Z,-0.18
2023-02-27T06:31:41.728Z,-0.15
2023-02-27T06:34:08.680Z,-0.07
2023-02-27T06:36:35.532Z,-0.03
2023-02-27T06:39:02.482Z,0.01
2023-02-27T06:41:29.336Z,0.07
2023-02-27T06:43:56.785Z,0.12
2023-02-27T06:46:24.564Z,0.17
2023-02-27T06:48:51.610Z,0.21
2023-02-27T06:51:18.456Z,0.27
2023-02-27T06:53:45.307Z,0.32
2023-02-27T06:56:12.158Z,0.38
2023-02-27T06:58:39.102Z,0.66
2023-02-27T07:01:06.070Z,0.98
2023-02-27T07:03:33.784Z,1.18
2023-02-27T07:06:00.771Z,1.36
2023-02-27T07:08:27.727Z,1.69
2023-02-27T07:10:54.671Z,2.35
2023-02-27T07:13:21.621Z,3.37
2023-02-27T07:15:48.601Z,4.87
2023-02-27T07:18:15.525Z,6.46
2023-02-27T07:20:43.098Z,8.09
2023-02-27T07:23:10.976Z,9.25
2023-02-27T07:25:37.910Z,10.18
2023-02-27T07:28:05.328Z,11.01
2023-02-27T07:30:32.323Z,11.89
2023-02-27T07:32:59.282Z,12.69
2023-02-27T07:35:26.219Z,13.35
2023-02-27T07:37:53.173Z,14.35
2023-02-27T07:40:20.135Z,15.24
2023-02-27T07:42:52.996Z,16.04
2023-02-27T07:45:20.186Z,16.83
2023-02-27T07:47:47.129Z,17.32
2023-02-27T07:50:16.939Z,17.72
2023-02-27T07:52:44.619Z,18.03
2023-02-27T07:55:13.229Z,18.10
2023-02-27T07:57:40.144Z,17.87
2023-02-27T08:00:09.929Z,18.22
2023-02-27T08:02:40.325Z,18.84
2023-02-27T08:05:10.999Z,19.27
2023-02-27T08:07:37.991Z,19.66
2023-02-27T08:10:06.218Z,19.74
2023-02-27T08:12:33.619Z,19.96
2023-02-27T08:15:00.685Z,20.10
2023-02-27T08:17:27.628Z,19.88
2023-02-27T08:19:54.576Z,19.44
2023-02-27T08:22:21.824Z,17.98
2023-02-27T08:24:48.678Z,16.77
2023-02-27T08:27:15.542Z,17.28
2023-02-27T08:29:43.700Z,18.11
2023-02-27T08:32:10.995Z,17.58
2023-02-27T08:34:38.009Z,16.86
2023-02-27T08:37:04.959Z,15.68
2023-02-27T08:39:32.125Z,14.65
2023-02-27T08:41:58.957Z,13.69
2023-02-27T08:44:25.750Z,12.84
2023-02-27T08:46:52.666Z,12.02
2023-02-27T08:49:25.240Z,11.20
2023-02-27T08:51:52.494Z,10.53
2023-02-27T08:54:19.857Z,10.10
2023-02-27T08:56:48.029Z,9.82
2023-02-27T08:59:15.592Z,9.35
2023-02-27T09:01:42.853Z,8.76
2023-02-27T09:04:10.022Z,8.32
2023-02-27T09:06:37.685Z,7.99
2023-02-27T09:09:06.760Z,7.54
2023-02-27T09:11:34.241Z,6.99
2023-02-27T09:14:01.310Z,6.62
2023-02-27T09:16:28.683Z,6.32
2023-02-27T09:18:55.940Z,6.55
2023-02-27T09:21:23.987Z,8.10
2023-02-27T09:23:53.283Z,9.30
2023-02-27T09:26:21.681Z,10.19
2023-02-27T09:28:50.269Z,9.82
2023-02-27T09:31:18.001Z,9.30
2023-02-27T09:33:45.087Z,8.86
2023-02-27T09:36:12.461Z,8.40
2023-02-27T09:38:41.318Z,7.89
2023-02-27T09:41:27.519Z,7.22
2023-02-27T09:43:54.987Z,6.71
2023-02-27T09:46:25.823Z,6.37
2023-02-27T09:49:01.437Z,6.00
2023-02-27T09:51:29.922Z,5.62
2023-02-27T09:54:02.439Z,5.45
2023-02-27T09:56:40.751Z,5.35
2023-02-27T09:59:36.276Z,5.33
2023-02-27T10:02:08.753Z,5.23
2023-02-27T10:05:04.838Z,5.03
2023-02-27T10:07:53.178Z,4.73
2023-02-27T10:10:37.736Z,4.41
2023-02-27T10:13:28.847Z,4.14
2023-02-27T10:15:57.405Z,3.78
2023-02-27T10:18:33.645Z,3.57
2023-02-27T10:21:06.987Z,3.39
2023-02-27T10:23:56.753Z,3.24
2023-02-27T10:26:31.368Z,3.21
2023-02-27T10:29:02.943Z,3.13
2023-02-27T10:31:33.904Z,3.06
2023-02-27T10:34:01.958Z,3.04
2023-02-27T10:36:34.166Z,3.09
2023-02-27T10:39:07.047Z,3.15
2023-02-27T10:41:36.647Z,3.20
2023-02-27T10:44:04.103Z,3.25
2023-02-27T10:46:35.963Z,3.30
2023-02-27T10:49:13.792Z,3.32
2023-02-27T10:51:40.908Z,3.29
2023-02-27T10:54:19.919Z,3.32
2023-02-27T10:56:56.850Z,3.41
2023-02-27T10:59:38.744Z,3.56
2023-02-27T11:02:18.034Z,3.66
2023-02-27T11:04:55.413Z,3.70
2023-02-27T11:07:36.540Z,3.64
2023-02-27T11:10:15.807Z,3.60
2023-02-27T11:12:57.201Z,3.59
2023-02-27T11:15:27.313Z,3.52
2023-02-27T11:17:55.392Z,3.36
2023-02-27T11:20:39.741Z,3.17
2023-02-27T11:23:18.268Z,2.98
2023-02-27T11:25:45.377Z,2.84
2023-02-27T11:28:14.245Z,2.74
2023-02-27T11:30:43.954Z,2.70
2023-02-27T11:33:19.199Z,2.67
2023-02-27T11:35:57.856Z,2.69
2023-02-27T11:38:31.551Z,2.70
2023-02-27T11:41:04.453Z,2.65
2023-02-27T11:43:49.428Z,2.57
2023-02-27T11:46:47.295Z,2.54
2023-02-27T11:49:35.139Z,2.51
2023-02-27T11:52:17.887Z,2.50
2023-02-27T11:54:58.102Z,2.48
2023-02-27T11:57:39.566Z,2.45
2023-02-27T12:00:20.023Z,2.41
2023-02-27T12:02:56.051Z,2.37
2023-02-27T12:05:30.871Z,2.36
2023-02-27T12:08:05.991Z,2.39
2023-02-27T12:10:48.556Z,2.41
2023-02-27T12:13:21.660Z,2.40
2023-02-27T12:16:09.261Z,2.40
2023-02-27T12:18:45.140Z,2.34
2023-02-27T12:21:16.875Z,2.25
2023-02-27T12:23:50.051Z,2.15
2023-02-27T12:26:30.002Z,2.09
2023-02-27T12:29:09.608Z,2.06
2023-02-27T12:31:45.016Z,2.09
2023-02-27T12:34:12.268Z,2.09
2023-02-27T12:36:39.401Z,2.09
2023-02-27T12:39:15.440Z,2.03
2023-02-27T12:42:20.697Z,1.98
2023-02-27T12:44:56.541Z,1.96
2023-02-27T12:47:28.906Z,1.98
2023-02-27T12:50:24.201Z,1.98
2023-02-27T12:53:10.092Z,1.94
2023-02-27T12:55:49.736Z,1.94
2023-02-27T12:58:38.589Z,1.93
2023-02-27T13:01:22.095Z,1.89
2023-02-27T13:03:59.814Z,1.88
2023-02-27T13:07:05.880Z,1.88
2023-02-27T13:09:56.195Z,1.84
2023-02-27T13:12:48.521Z,1.82
2023-02-27T13:15:15.434Z,1.80
2023-02-27T13:17:55.124Z,1.79
2023-02-27T13:20:21.924Z,1.76
2023-02-27T13:22:53.374Z,1.76
2023-02-27T13:25:21.466Z,1.75
2023-02-27T13:27:54.313Z,1.76
2023-02-27T13:30:27.743Z,1.77
2023-02-27T13:33:16.180Z,1.78
2023-02-27T13:35:46.102Z,1.76
2023-02-27T13:38:34.909Z,1.77
2023-02-27T13:41:28.433Z,1.75
2023-02-27T13:43:57.196Z,1.69
2023-02-27T13:46:31.776Z,1.63
2023-02-27T13:49:05.092Z,1.59
2023-02-27T13:51:35.116Z,1.55
2023-02-27T13:54:14.545Z,1.52
2023-02-27T13:57:07.700Z,1.52
2023-02-27T13:59:42.456Z,1.50
2023-02-27T14:02:12.638Z,1.51
2023-02-27T14:04:49.705Z,1.53
2023-02-27T14:07:26.705Z,1.54
2023-02-27T14:10:11.682Z,1.50
2023-02-27T14:12:46.399Z,1.45
2023-02-27T14:15:23.048Z,1.45
2023-02-27T14:18:09.276Z,1.44
2023-02-27T14:20:39.414Z,1.46
2023-02-27T14:23:15.230Z,1.49
2023-02-27T14:25:51.698Z,1.47
2023-02-27T14:28:44.742Z,1.43
2023-02-27T14:31:28.789Z,1.42
2023-02-27T14:34:05.247Z,1.42
2023-02-27T14:36:39.775Z,1.41
2023-02-27T14:39:07.037Z,1.41
2023-02-27T14:42:02.037Z,1.40
2023-02-27T14:44:37.671Z,1.37
2023-02-27T14:47:05.953Z,1.36
2023-02-27T14:49:36.218Z,1.37
2023-02-27T14:52:22.040Z,1.36
2023-02-27T14:54:50.451Z,1.36
2023-02-27T14:57:26.681Z,1.36
2023-02-27T14:59:55.221Z,1.35
2023-02-27T15:02:25.117Z,1.33
2023-02-27T15:05:01.408Z,1.30
2023-02-27T15:07:34.270Z,1.26
2023-02-27T15:10:05.178Z,1.18
2023-02-27T15:12:37.889Z,1.13
2023-02-27T15:15:10.366Z,1.11
2023-02-27T15:17:40.700Z,1.09
2023-02-27T15:20:38.254Z,1.06
2023-02-27T15:23:28.831Z,1.02
2023-02-27T15:25:58.445Z,1.00
2023-02-27T15:28:37.775Z,0.94
2023-02-27T15:31:07.479Z,0.87
2023-02-27T15:33:34.757Z,0.84
2023-02-27T15:36:02.218Z,0.80
2023-02-27T15:38:31.218Z,0.74
2023-02-27T15:41:00.008Z,0.70
2023-02-27T15:43:28.957Z,0.69
2023-02-27T15:45:58.497Z,0.69
2023-02-27T15:48:26.287Z,0.68
2023-02-27T15:51:02.391Z,0.66
2023-02-27T15:53:34.189Z,0.65
2023-02-27T15:56:06.373Z,0.64
2023-02-27T15:58:46.993Z,0.62
2023-02-27T16:01:19.930Z,0.59
2023-02-27T16:03:49.662Z,0.55
2023-02-27T16:06:20.635Z,0.55
2023-02-27T16:09:01.536Z,0.54
2023-02-27T16:11:31.435Z,0.51
2023-02-27T16:13:58.506Z,0.48
2023-02-27T16:16:36.436Z,0.46
2023-02-27T16:19:22.745Z,0.46
2023-02-27T16:22:16.677Z,0.46
2023-02-27T16:24:44.662Z,0.44
2023-02-27T16:27:16.957Z,0.43
2023-02-27T16:29:45.612Z,0.41
2023-02-27T16:32:32.797Z,0.40
2023-02-27T16:35:08.353Z,0.36
2023-02-27T16:37:38.375Z,0.33
2023-02-27T16:40:22.989Z,0.33
2023-02-27T16:42:51.429Z,0.32
2023-02-27T16:45:21.995Z,0.33
2023-02-27T16:47:50.547Z,0.30
2023-02-27T16:50:41.530Z,0.26
2023-02-27T16:53:09.194Z,0.21
2023-02-27T16:55:40.153Z,0.17
2023-02-27T16:58:07.314Z,0.14
2023-02-27T17:00:35.292Z,0.10
2023-02-27T17:03:02.438Z,0.09
2023-02-27T17:05:29.582Z,0.09
2023-02-27T17:07:56.549Z,0.10
2023-02-27T17:10:24.813Z,0.14
2023-02-27T17:12:52.361Z,0.13
2023-02-27T17:15:20.381Z,0.11
2023-02-27T17:17:47.409Z,0.09
2023-02-27T17:20:15.237Z,0.08
2023-02-27T17:22:44.427Z,0.06
2023-02-27T17:25:12.564Z,0.05
2023-02-27T17:27:41.756Z,0.05
2023-02-27T17:30:09.753Z,0.04
2023-02-27T17:32:36.891Z,0.02
2023-02-27T17:35:04.555Z,0.00
2023-02-27T17:37:31.821Z,-0.00
2023-02-27T17:39:59.052Z,0.03
2023-02-27T17:42:26.435Z,0.03
2023-02-27T17:44:53.890Z,0.04
2023-02-27T17:47:21.169Z,0.04
2023-02-27T17:49:48.554Z,0.04
2023-02-27T17:52:15.973Z,0.06
2023-02-27T17:54:43.046Z,0.06
2023-02-27T17:57:12.240Z,0.05
2023-02-27T17:59:40.777Z,-0.01
2023-02-27T18:02:10.325Z,-0.09
2023-02-27T18:04:37.495Z,-0.13
2023-02-27T18:07:04.645Z,-0.16
2023-02-27T18:09:32.148Z,-0.17
2023-02-27T18:11:59.149Z,-0.16
2023-02-27T18:14:26.614Z,-0.17
2023-02-27T18:16:53.878Z,-0.19
2023-02-27T18:19:20.922Z,-0.19
2023-02-27T18:21:47.970Z,-0.17
2023-02-27T18:24:18.301Z,-0.15
2023-02-27T18:26:45.801Z,-0.15
2023-02-27T18:29:14.314Z,-0.15
2023-02-27T18:31:46.703Z,-0.13
2023-02-27T18:34:14.005Z,-0.12
2023-02-27T18:36:41.045Z,-0.08
2023-02-27T18:39:09.120Z,-0.07
2023-02-27T18:41:37.275Z,-0.08
2023-02-27T18:44:05.384Z,-0.10
2023-02-27T18:46:33.389Z,-0.12
2023-02-27T18:49:01.320Z,-0.13
2023-02-27T18:51:29.298Z,-0.12
2023-02-27T18:53:57.062Z,-0.11
2023-02-27T18:56:25.711Z,-0.10
2023-02-27T18:58:54.054Z,-0.11
2023-02-27T19:01:25.580Z,-0.12
2023-02-27T19:04:00.669Z,-0.14
2023-02-27T19:06:28.489Z,-0.18
2023-02-27T19:08:56.053Z,-0.22
2023-02-27T19:11:33.393Z,-0.24
2023-02-27T19:14:02.882Z,-0.28
2023-02-27T19:16:30.665Z,-0.28
2023-02-27T19:19:00.028Z,-0.28
2023-02-27T19:21:27.778Z,-0.30
2023-02-27T19:23:54.846Z,-0.31
2023-02-27T19:26:23.458Z,-0.35
2023-02-27T19:28:55.124Z,-0.48
2023-02-27T19:31:24.582Z,-0.53
2023-02-27T19:33:51.865Z,-0.53
2023-02-27T19:36:21.218Z,-0.53
2023-02-27T19:38:48.517Z,-0.52
2023-02-27T19:41:19.467Z,-0.53
2023-02-27T19:43:47.646Z,-0.55
2023-02-27T19:46:18.332Z,-0.57
2023-02-27T19:48:45.637Z,-0.61
2023-02-27T19:51:14.659Z,-0.65
2023-02-27T19:53:46.108Z,-0.67
2023-02-27T19:56:16.250Z,-0.70
2023-02-27T19:58:44.313Z,-0.74
2023-02-27T20:01:12.661Z,-0.78
2023-02-27T20:03:43.810Z,-0.81
2023-02-27T20:06:23.348Z,-0.85
2023-02-27T20:08:51.019Z,-0.87
2023-02-27T20:11:20.000Z,-0.91
2023-02-27T20:13:48.649Z,-0.94
2023-02-27T20:16:19.592Z,-0.99
2023-02-27T20:18:46.714Z,-1.05
2023-02-27T20:21:17.101Z,-1.12
2023-02-27T20:23:45.639Z,-1.17
2023-02-27T20:26:22.692Z,-1.20
2023-02-27T20:28:52.303Z,-1.24
2023-02-27T20:31:22.227Z,-1.27
2023-02-27T20:33:50.603Z,-1.28
2023-02-27T20:36:17.969Z,-1.29
2023-02-27T20:38:45.440Z,-1.31
2023-02-27T20:41:18.162Z,-1.34
2023-02-27T20:43:45.780Z,-1.37
2023-02-27T20:46:19.432Z,-1.43
2023-02-27T20:48:50.859Z,-1.48
2023-02-27T20:51:22.958Z,-1.54
2023-02-27T20:53:53.505Z,-1.60
2023-02-27T20:56:26.709Z,-1.65
2023-02-27T20:58:54.819Z,-1.71
2023-02-27T21:01:22.388Z,-1.76
2023-02-27T21:03:52.326Z,-1.82
2023-02-27T21:06:20.406Z,-1.85
2023-02-27T21:08:49.678Z,-1.86
2023-02-27T21:11:23.782Z,-1.86
2023-02-27T21:13:51.042Z,-1.86
2023-02-27T21:16:20.736Z,-1.87
2023-02-27T21:18:51.934Z,-1.87
2023-02-27T21:21:25.505Z,-1.92
2023-02-27T21:23:52.991Z,-1.93
2023-02-27T21:26:27.706Z,-1.95
2023-02-27T21:29:07.962Z,-1.99
2023-02-27T21:31:37.041Z,-2.01
2023-02-27T21:34:07.338Z,-2.04
2023-02-27T21:36:42.602Z,-2.08
2023-02-27T21:39:13.356Z,-2.13
2023-02-27T21:41:41.581Z,-2.19
2023-02-27T21:44:12.025Z,-2.23
2023-02-27T21:46:39.226Z,-2.32
2023-02-27T21:49:06.986Z,-2.37
2023-02-27T21:51:40.358Z,-2.37
2023-02-27T21:54:10.753Z,-2.36
2023-02-27T21:56:38.387Z,-2.36
2023-02-27T21:59:05.939Z,-2.43
2023-02-27T22:01:33.964Z,-2.47
2023-02-27T22:04:02.196Z,-2.51
2023-02-27T22:06:34.179Z,-2.57
2023-02-27T22:09:05.133Z,-2.61
2023-02-27T22:11:34.251Z,-2.65
2023-02-27T22:14:01.990Z,-2.69
2023-02-27T22:16:29.041Z,-2.78
2023-02-27T22:18:56.066Z,-2.87
2023-02-27T22:21:25.520Z,-2.95
2023-02-27T22:23:53.285Z,-3.04
2023-02-27T22:26:24.455Z,-3.12
2023-02-27T22:28:53.631Z,-3.14
2023-02-27T22:31:25.681Z,-3.19
2023-02-27T22:33:55.642Z,-3.20
2023-02-27T22:36:25.872Z,-3.20
2023-02-27T22:38:53.276Z,-3.20
2023-02-27T22:41:23.759Z,-3.22
2023-02-27T22:43:51.494Z,-3.25
2023-02-27T22:46:28.396Z,-3.30
2023-02-27T22:49:01.824Z,-3.38
2023-02-27T22:51:30.700Z,-3.46
2023-02-27T22:54:00.342Z,-3.53
2023-02-27T22:56:28.232Z,-3.58
2023-02-27T22:58:55.389Z,-3.64
2023-02-27T23:01:26.666Z,-3.69
2023-02-27T23:03:56.760Z,-3.74
2023-02-27T23:06:27.081Z,-3.81
2023-02-27T23:08:54.446Z,-3.86
2023-02-27T23:11:22.003Z,-3.93
2023-02-27T23:13:50.394Z,-4.02
2023-02-27T23:16:17.719Z,-4.08
2023-02-27T23:18:51.198Z,-4.11
2023-02-27T23:21:20.546Z,-4.17
2023-02-27T23:23:48.035Z,-4.20
2023-02-27T23:26:14.986Z,-4.25
2023-02-27T23:28:42.946Z,-4.28
2023-02-27T23:31:10.201Z,-4.32
2023-02-27T23:33:37.456Z,-4.38
2023-02-27T23:36:04.967Z,-4.41
2023-02-27T23:38:32.382Z,-4.43
2023-02-27T23:41:09.694Z,-4.47
2023-02-27T23:43:36.924Z,-4.53
2023-02-27T23:46:14.707Z,-4.57
2023-02-27T23:48:42.636Z,-4.59
2023-02-27T23:51:11.747Z,-4.57
2023-02-27T23:53:40.589Z,-4.54
2023-02-27T23:56:26.358Z,-4.51
2023-02-27T23:58:59.020Z,-4.51
